sensor_id;sensor_type;location;lat;lon;timestamp;temperature;humidity
19090;DHT22;9677;50.656;13.064;2022-12-26T00:00:52;12.90;63.10
19090;DHT22;9677;50.656;13.064;2022-12-26T00:03:21;12.90;63.10
19090;DHT22;9677;50.656;13.064;2022-12-26T00:05:50;12.90;63.20
19090;DHT22;9677;50.656;13.064;2022-12-26T00:08:18;13.00;63.30
19090;DHT22;9677;50.656;13.064;2022-12-26T00:10:47;12.90;64.00
19090;DHT22;9677;50.656;13.064;2022-12-26T00:13:15;12.90;63.20
19090;DHT22;9677;50.656;13.064;2022-12-26T00:16:07;13.20;63.40
19090;DHT22;9677;50.656;13.064;2022-12-26T00:18:37;13.00;63.30
19090;DHT22;9677;50.656;13.064;2022-12-26T00:21:06;12.90;63.20
19090;DHT22;9677;50.656;13.064;2022-12-26T00:23:36;12.90;63.20
19090;DHT22;9677;50.656;13.064;2022-12-26T00:26:05;12.90;63.80
19090;DHT22;9677;50.656;13.064;2022-12-26T00:28:35;13.50;63.40
19090;DHT22;9677;50.656;13.064;2022-12-26T00:31:06;12.90;63.00
19090;DHT22;9677;50.656;13.064;2022-12-26T00:33:37;12.90;63.10
19090;DHT22;9677;50.656;13.064;2022-12-26T00:36:08;12.90;63.20
19090;DHT22;9677;50.656;13.064;2022-12-26T00:38:40;12.90;63.30
19090;DHT22;9677;50.656;13.064;2022-12-26T00:41:11;12.90;63.50
19090;DHT22;9677;50.656;13.064;2022-12-26T00:43:40;12.90;63.60
19090;DHT22;9677;50.656;13.064;2022-12-26T00:46:10;12.90;63.60
19090;DHT22;9677;50.656;13.064;2022-12-26T00:48:40;12.90;63.60
19090;DHT22;9677;50.656;13.064;2022-12-26T00:51:09;12.90;63.60
19090;DHT22;9677;50.656;13.064;2022-12-26T00:53:37;12.90;63.60
19090;DHT22;9677;50.656;13.064;2022-12-26T00:56:07;13.00;63.60
19090;DHT22;9677;50.656;13.064;2022-12-26T00:58:36;13.10;63.70
19090;DHT22;9677;50.656;13.064;2022-12-26T01:01:06;13.00;63.50
19090;DHT22;9677;50.656;13.064;2022-12-26T01:03:38;13.00;63.50
19090;DHT22;9677;50.656;13.064;2022-12-26T01:06:06;13.00;63.50
19090;DHT22;9677;50.656;13.064;2022-12-26T01:08:35;13.00;63.50
19090;DHT22;9677;50.656;13.064;2022-12-26T01:11:05;13.00;63.50
19090;DHT22;9677;50.656;13.064;2022-12-26T01:13:35;13.00;63.60
19090;DHT22;9677;50.656;13.064;2022-12-26T01:16:05;13.30;63.80
19090;DHT22;9677;50.656;13.064;2022-12-26T01:18:34;13.10;63.70
19090;DHT22;9677;50.656;13.064;2022-12-26T01:21:06;13.10;63.60
19090;DHT22;9677;50.656;13.064;2022-12-26T01:23:35;13.10;63.40
19090;DHT22;9677;50.656;13.064;2022-12-26T01:26:04;13.10;63.30
19090;DHT22;9677;50.656;13.064;2022-12-26T01:28:46;13.10;63.20
19090;DHT22;9677;50.656;13.064;2022-12-26T01:31:15;13.10;63.40
19090;DHT22;9677;50.656;13.064;2022-12-26T01:33:44;13.10;63.50
19090;DHT22;9677;50.656;13.064;2022-12-26T01:36:15;13.20;63.60
19090;DHT22;9677;50.656;13.064;2022-12-26T01:38:43;13.20;63.60
19090;DHT22;9677;50.656;13.064;2022-12-26T01:41:12;13.20;63.50
19090;DHT22;9677;50.656;13.064;2022-12-26T01:43:51;13.30;63.40
19090;DHT22;9677;50.656;13.064;2022-12-26T01:46:26;13.30;63.30
19090;DHT22;9677;50.656;13.064;2022-12-26T01:49:00;13.30;63.30
19090;DHT22;9677;50.656;13.064;2022-12-26T01:51:36;13.30;63.20
19090;DHT22;9677;50.656;13.064;2022-12-26T01:54:09;13.30;63.20
19090;DHT22;9677;50.656;13.064;2022-12-26T01:56:59;13.40;63.20
19090;DHT22;9677;50.656;13.064;2022-12-26T01:59:35;13.40;63.10
19090;DHT22;9677;50.656;13.064;2022-12-26T02:02:05;13.90;63.30
19090;DHT22;9677;50.656;13.064;2022-12-26T02:04:37;13.40;63.00
19090;DHT22;9677;50.656;13.064;2022-12-26T02:07:27;13.50;63.00
19090;DHT22;9677;50.656;13.064;2022-12-26T02:09:55;13.50;62.80
19090;DHT22;9677;50.656;13.064;2022-12-26T02:12:26;13.50;62.80
19090;DHT22;9677;50.656;13.064;2022-12-26T02:15:07;13.50;62.70
19090;DHT22;9677;50.656;13.064;2022-12-26T02:17:37;13.50;62.70
19090;DHT22;9677;50.656;13.064;2022-12-26T02:20:16;13.50;62.50
19090;DHT22;9677;50.656;13.064;2022-12-26T02:23:17;13.50;62.40
19090;DHT22;9677;50.656;13.064;2022-12-26T02:26:46;13.50;62.40
19090;DHT22;9677;50.656;13.064;2022-12-26T02:39:21;13.50;62.50
19090;DHT22;9677;50.656;13.064;2022-12-26T02:42:22;13.60;62.50
19090;DHT22;9677;50.656;13.064;2022-12-26T02:45:01;13.60;62.50
19090;DHT22;9677;50.656;13.064;2022-12-26T02:47:55;13.60;62.70
19090;DHT22;9677;50.656;13.064;2022-12-26T02:50:32;13.60;62.60
19090;DHT22;9677;50.656;13.064;2022-12-26T02:53:31;13.60;62.60
19090;DHT22;9677;50.656;13.064;2022-12-26T02:56:28;13.60;62.60
19090;DHT22;9677;50.656;13.064;2022-12-26T02:59:21;13.60;62.50
19090;DHT22;9677;50.656;13.064;2022-12-26T03:02:29;13.70;62.50
19090;DHT22;9677;50.656;13.064;2022-12-26T03:05:26;13.70;62.40
19090;DHT22;9677;50.656;13.064;2022-12-26T03:08:20;13.70;62.20
19090;DHT22;9677;50.656;13.064;2022-12-26T03:11:09;13.70;62.20
19090;DHT22;9677;50.656;13.064;2022-12-26T03:14:02;13.70;62.20
19090;DHT22;9677;50.656;13.064;2022-12-26T03:16:35;14.00;62.40
19090;DHT22;9677;50.656;13.064;2022-12-26T03:19:22;13.70;62.30
19090;DHT22;9677;50.656;13.064;2022-12-26T03:21:55;13.70;62.40
19090;DHT22;9677;50.656;13.064;2022-12-26T03:24:24;13.60;62.20
19090;DHT22;9677;50.656;13.064;2022-12-26T03:27:15;13.70;62.30
19090;DHT22;9677;50.656;13.064;2022-12-26T03:29:43;13.70;62.30
19090;DHT22;9677;50.656;13.064;2022-12-26T03:32:41;13.70;62.10
19090;DHT22;9677;50.656;13.064;2022-12-26T03:35:12;13.70;62.00
19090;DHT22;9677;50.656;13.064;2022-12-26T03:37:46;13.70;62.20
19090;DHT22;9677;50.656;13.064;2022-12-26T03:40:38;13.70;62.10
19090;DHT22;9677;50.656;13.064;2022-12-26T03:43:35;14.30;62.50
19090;DHT22;9677;50.656;13.064;2022-12-26T03:46:37;13.70;62.00
19090;DHT22;9677;50.656;13.064;2022-12-26T03:49:35;13.80;62.10
19090;DHT22;9677;50.656;13.064;2022-12-26T03:52:28;13.70;62.00
19090;DHT22;9677;50.656;13.064;2022-12-26T03:55:24;13.70;62.10
19090;DHT22;9677;50.656;13.064;2022-12-26T03:58:31;13.70;62.00
19090;DHT22;9677;50.656;13.064;2022-12-26T04:01:23;13.70;62.10
19090;DHT22;9677;50.656;13.064;2022-12-26T04:04:12;13.70;62.00
19090;DHT22;9677;50.656;13.064;2022-12-26T04:07:05;13.70;61.90
19090;DHT22;9677;50.656;13.064;2022-12-26T04:10:00;13.90;62.00
19090;DHT22;9677;50.656;13.064;2022-12-26T04:12:51;13.70;61.90
19090;DHT22;9677;50.656;13.064;2022-12-26T04:15:43;13.70;62.00
19090;DHT22;9677;50.656;13.064;2022-12-26T04:18:33;13.70;62.00
19090;DHT22;9677;50.656;13.064;2022-12-26T04:21:26;13.70;62.00
19090;DHT22;9677;50.656;13.064;2022-12-26T04:24:20;13.70;62.00
19090;DHT22;9677;50.656;13.064;2022-12-26T04:27:12;13.80;62.00
19090;DHT22;9677;50.656;13.064;2022-12-26T04:30:00;13.70;62.00
19090;DHT22;9677;50.656;13.064;2022-12-26T04:32:48;13.80;62.10
19090;DHT22;9677;50.656;13.064;2022-12-26T04:35:44;14.10;62.40
19090;DHT22;9677;50.656;13.064;2022-12-26T04:38:36;13.80;62.10
19090;DHT22;9677;50.656;13.064;2022-12-26T04:41:29;13.80;62.10
19090;DHT22;9677;50.656;13.064;2022-12-26T04:44:18;13.80;62.10
19090;DHT22;9677;50.656;13.064;2022-12-26T04:46:51;14.20;62.40
19090;DHT22;9677;50.656;13.064;2022-12-26T04:49:20;13.80;62.10
19090;DHT22;9677;50.656;13.064;2022-12-26T04:52:09;14.20;62.30
19090;DHT22;9677;50.656;13.064;2022-12-26T04:54:39;13.80;62.10
19090;DHT22;9677;50.656;13.064;2022-12-26T04:57:09;13.90;62.10
19090;DHT22;9677;50.656;13.064;2022-12-26T04:59:38;13.80;62.20
19090;DHT22;9677;50.656;13.064;2022-12-26T05:02:08;14.10;62.30
19090;DHT22;9677;50.656;13.064;2022-12-26T05:04:55;13.90;62.10
19090;DHT22;9677;50.656;13.064;2022-12-26T05:07:40;13.90;62.10
19090;DHT22;9677;50.656;13.064;2022-12-26T05:10:25;13.90;62.00
19090;DHT22;9677;50.656;13.064;2022-12-26T05:12:54;13.90;61.90
19090;DHT22;9677;50.656;13.064;2022-12-26T05:15:23;13.90;61.80
19090;DHT22;9677;50.656;13.064;2022-12-26T05:17:53;14.00;61.80
19090;DHT22;9677;50.656;13.064;2022-12-26T05:20:39;14.00;61.70
19090;DHT22;9677;50.656;13.064;2022-12-26T05:23:26;14.00;61.60
19090;DHT22;9677;50.656;13.064;2022-12-26T05:26:16;14.00;61.60
19090;DHT22;9677;50.656;13.064;2022-12-26T05:29:03;14.00;61.50
19090;DHT22;9677;50.656;13.064;2022-12-26T05:31:31;13.90;61.50
19090;DHT22;9677;50.656;13.064;2022-12-26T05:34:04;14.00;61.50
19090;DHT22;9677;50.656;13.064;2022-12-26T05:36:35;14.00;61.60
19090;DHT22;9677;50.656;13.064;2022-12-26T05:39:06;14.00;61.70
19090;DHT22;9677;50.656;13.064;2022-12-26T05:41:36;14.00;61.70
19090;DHT22;9677;50.656;13.064;2022-12-26T05:44:04;14.00;61.70
19090;DHT22;9677;50.656;13.064;2022-12-26T05:46:33;14.00;61.60
19090;DHT22;9677;50.656;13.064;2022-12-26T05:49:04;14.00;61.60
19090;DHT22;9677;50.656;13.064;2022-12-26T05:51:33;14.00;61.70
19090;DHT22;9677;50.656;13.064;2022-12-26T05:54:01;14.00;61.70
19090;DHT22;9677;50.656;13.064;2022-12-26T05:56:30;14.00;61.60
19090;DHT22;9677;50.656;13.064;2022-12-26T05:59:00;14.00;61.60
19090;DHT22;9677;50.656;13.064;2022-12-26T06:01:28;14.00;61.60
19090;DHT22;9677;50.656;13.064;2022-12-26T06:03:58;14.00;61.60
19090;DHT22;9677;50.656;13.064;2022-12-26T06:06:28;14.00;61.50
19090;DHT22;9677;50.656;13.064;2022-12-26T06:08:57;14.00;61.40
19090;DHT22;9677;50.656;13.064;2022-12-26T06:11:26;14.00;61.30
19090;DHT22;9677;50.656;13.064;2022-12-26T06:13:54;14.00;61.40
19090;DHT22;9677;50.656;13.064;2022-12-26T06:16:23;14.10;61.50
19090;DHT22;9677;50.656;13.064;2022-12-26T06:18:53;14.00;61.40
19090;DHT22;9677;50.656;13.064;2022-12-26T06:21:22;13.90;61.40
19090;DHT22;9677;50.656;13.064;2022-12-26T06:23:52;13.90;61.40
19090;DHT22;9677;50.656;13.064;2022-12-26T06:26:20;13.90;61.40
19090;DHT22;9677;50.656;13.064;2022-12-26T06:28:49;13.90;61.40
19090;DHT22;9677;50.656;13.064;2022-12-26T06:31:19;13.90;61.50
19090;DHT22;9677;50.656;13.064;2022-12-26T06:33:50;13.90;61.50
19090;DHT22;9677;50.656;13.064;2022-12-26T06:36:23;13.90;61.50
19090;DHT22;9677;50.656;13.064;2022-12-26T06:38:54;13.90;61.50
19090;DHT22;9677;50.656;13.064;2022-12-26T06:41:23;13.90;61.50
19090;DHT22;9677;50.656;13.064;2022-12-26T06:43:52;13.90;61.60
19090;DHT22;9677;50.656;13.064;2022-12-26T06:46:23;13.90;61.70
19090;DHT22;9677;50.656;13.064;2022-12-26T06:48:52;13.80;61.70
19090;DHT22;9677;50.656;13.064;2022-12-26T06:51:22;13.90;61.70
19090;DHT22;9677;50.656;13.064;2022-12-26T06:53:53;13.90;61.70
19090;DHT22;9677;50.656;13.064;2022-12-26T06:56:24;13.90;61.70
19090;DHT22;9677;50.656;13.064;2022-12-26T06:58:53;13.90;61.70
19090;DHT22;9677;50.656;13.064;2022-12-26T07:01:23;13.90;61.70
19090;DHT22;9677;50.656;13.064;2022-12-26T07:03:53;13.90;61.80
19090;DHT22;9677;50.656;13.064;2022-12-26T07:06:23;13.90;61.80
19090;DHT22;9677;50.656;13.064;2022-12-26T07:08:57;13.90;61.70
19090;DHT22;9677;50.656;13.064;2022-12-26T07:11:28;13.90;61.60
19090;DHT22;9677;50.656;13.064;2022-12-26T07:13:58;13.90;61.60
19090;DHT22;9677;50.656;13.064;2022-12-26T07:16:27;13.90;61.60
19090;DHT22;9677;50.656;13.064;2022-12-26T07:18:57;13.90;61.70
19090;DHT22;9677;50.656;13.064;2022-12-26T07:21:27;13.90;61.90
19090;DHT22;9677;50.656;13.064;2022-12-26T07:24:04;13.90;61.90
19090;DHT22;9677;50.656;13.064;2022-12-26T07:26:33;13.90;61.90
19090;DHT22;9677;50.656;13.064;2022-12-26T07:29:01;14.00;61.90
19090;DHT22;9677;50.656;13.064;2022-12-26T07:31:29;14.00;61.90
19090;DHT22;9677;50.656;13.064;2022-12-26T07:33:58;14.00;61.80
19090;DHT22;9677;50.656;13.064;2022-12-26T07:36:26;14.00;61.80
19090;DHT22;9677;50.656;13.064;2022-12-26T07:38:55;14.10;61.80
19090;DHT22;9677;50.656;13.064;2022-12-26T07:41:24;14.10;61.80
19090;DHT22;9677;50.656;13.064;2022-12-26T07:44:10;14.10;61.70
19090;DHT22;9677;50.656;13.064;2022-12-26T07:46:39;14.20;61.70
19090;DHT22;9677;50.656;13.064;2022-12-26T07:49:07;14.20;61.70
19090;DHT22;9677;50.656;13.064;2022-12-26T07:51:38;14.30;61.70
19090;DHT22;9677;50.656;13.064;2022-12-26T07:54:08;14.20;61.60
19090;DHT22;9677;50.656;13.064;2022-12-26T07:56:39;14.20;61.50
19090;DHT22;9677;50.656;13.064;2022-12-26T07:59:11;14.20;61.40
19090;DHT22;9677;50.656;13.064;2022-12-26T08:01:41;14.30;61.50
19090;DHT22;9677;50.656;13.064;2022-12-26T08:04:11;14.30;62.20
19090;DHT22;9677;50.656;13.064;2022-12-26T08:06:39;14.30;61.40
19090;DHT22;9677;50.656;13.064;2022-12-26T08:09:11;14.30;61.40
19090;DHT22;9677;50.656;13.064;2022-12-26T08:11:43;14.30;61.30
19090;DHT22;9677;50.656;13.064;2022-12-26T08:14:13;14.30;61.30
19090;DHT22;9677;50.656;13.064;2022-12-26T08:16:43;14.30;61.20
19090;DHT22;9677;50.656;13.064;2022-12-26T08:19:19;14.50;61.30
19090;DHT22;9677;50.656;13.064;2022-12-26T08:21:47;14.30;61.20
19090;DHT22;9677;50.656;13.064;2022-12-26T08:24:18;14.30;61.20
19090;DHT22;9677;50.656;13.064;2022-12-26T08:26:48;14.30;61.20
19090;DHT22;9677;50.656;13.064;2022-12-26T08:29:16;14.30;61.20
19090;DHT22;9677;50.656;13.064;2022-12-26T08:31:45;14.40;61.30
19090;DHT22;9677;50.656;13.064;2022-12-26T08:34:13;14.40;61.30
19090;DHT22;9677;50.656;13.064;2022-12-26T08:36:42;14.40;61.20
19090;DHT22;9677;50.656;13.064;2022-12-26T08:39:10;14.50;61.20
19090;DHT22;9677;50.656;13.064;2022-12-26T08:41:39;14.50;61.10
19090;DHT22;9677;50.656;13.064;2022-12-26T08:44:09;14.50;61.10
19090;DHT22;9677;50.656;13.064;2022-12-26T08:46:55;14.50;61.10
19090;DHT22;9677;50.656;13.064;2022-12-26T08:49:23;14.60;61.00
19090;DHT22;9677;50.656;13.064;2022-12-26T08:51:52;14.60;61.00
19090;DHT22;9677;50.656;13.064;2022-12-26T08:54:20;14.50;60.90
19090;DHT22;9677;50.656;13.064;2022-12-26T08:56:48;14.60;60.90
19090;DHT22;9677;50.656;13.064;2022-12-26T08:59:18;14.70;60.70
19090;DHT22;9677;50.656;13.064;2022-12-26T09:01:47;14.70;60.80
19090;DHT22;9677;50.656;13.064;2022-12-26T09:04:16;14.70;60.80
19090;DHT22;9677;50.656;13.064;2022-12-26T09:06:44;14.80;60.90
19090;DHT22;9677;50.656;13.064;2022-12-26T09:09:12;14.80;60.70
19090;DHT22;9677;50.656;13.064;2022-12-26T09:11:41;14.80;60.70
19090;DHT22;9677;50.656;13.064;2022-12-26T09:14:10;14.80;60.60
19090;DHT22;9677;50.656;13.064;2022-12-26T09:16:42;14.80;60.60
19090;DHT22;9677;50.656;13.064;2022-12-26T09:19:17;14.80;60.40
19090;DHT22;9677;50.656;13.064;2022-12-26T09:21:48;15.10;60.70
19090;DHT22;9677;50.656;13.064;2022-12-26T09:24:36;14.90;60.50
19090;DHT22;9677;50.656;13.064;2022-12-26T09:27:05;14.90;60.20
19090;DHT22;9677;50.656;13.064;2022-12-26T09:29:33;15.00;60.30
19090;DHT22;9677;50.656;13.064;2022-12-26T09:32:05;15.00;60.10
19090;DHT22;9677;50.656;13.064;2022-12-26T09:34:33;15.00;60.20
19090;DHT22;9677;50.656;13.064;2022-12-26T09:37:02;15.10;60.30
19090;DHT22;9677;50.656;13.064;2022-12-26T09:39:30;15.10;60.20
19090;DHT22;9677;50.656;13.064;2022-12-26T09:42:06;15.10;60.10
19090;DHT22;9677;50.656;13.064;2022-12-26T09:44:46;15.10;60.00
19090;DHT22;9677;50.656;13.064;2022-12-26T09:47:29;15.20;59.90
19090;DHT22;9677;50.656;13.064;2022-12-26T09:50:04;15.20;59.70
19090;DHT22;9677;50.656;13.064;2022-12-26T09:52:42;15.20;59.80
19090;DHT22;9677;50.656;13.064;2022-12-26T09:55:27;15.30;59.70
19090;DHT22;9677;50.656;13.064;2022-12-26T09:58:07;15.30;59.60
19090;DHT22;9677;50.656;13.064;2022-12-26T10:00:49;15.30;59.70
19090;DHT22;9677;50.656;13.064;2022-12-26T10:03:21;15.30;59.60
19090;DHT22;9677;50.656;13.064;2022-12-26T10:06:08;15.50;59.70
19090;DHT22;9677;50.656;13.064;2022-12-26T10:08:59;15.30;59.50
19090;DHT22;9677;50.656;13.064;2022-12-26T10:11:48;15.40;59.50
19090;DHT22;9677;50.656;13.064;2022-12-26T10:14:29;15.40;59.30
19090;DHT22;9677;50.656;13.064;2022-12-26T10:17:07;15.40;59.40
19090;DHT22;9677;50.656;13.064;2022-12-26T10:19:48;15.40;59.50
19090;DHT22;9677;50.656;13.064;2022-12-26T10:22:43;15.40;59.40
19090;DHT22;9677;50.656;13.064;2022-12-26T10:25:37;15.40;59.20
19090;DHT22;9677;50.656;13.064;2022-12-26T10:28:16;15.40;59.20
19090;DHT22;9677;50.656;13.064;2022-12-26T10:30:46;15.40;59.30
19090;DHT22;9677;50.656;13.064;2022-12-26T10:33:19;15.40;59.30
19090;DHT22;9677;50.656;13.064;2022-12-26T10:35:51;15.40;59.30
19090;DHT22;9677;50.656;13.064;2022-12-26T10:38:27;15.40;59.30
19090;DHT22;9677;50.656;13.064;2022-12-26T10:41:02;15.40;59.20
19090;DHT22;9677;50.656;13.064;2022-12-26T10:43:33;15.40;59.30
19090;DHT22;9677;50.656;13.064;2022-12-26T10:46:14;15.40;59.30
19090;DHT22;9677;50.656;13.064;2022-12-26T10:48:52;15.40;59.00
19090;DHT22;9677;50.656;13.064;2022-12-26T10:51:23;15.40;59.20
19090;DHT22;9677;50.656;13.064;2022-12-26T10:53:52;15.40;59.10
19090;DHT22;9677;50.656;13.064;2022-12-26T10:56:22;15.40;59.30
19090;DHT22;9677;50.656;13.064;2022-12-26T10:58:59;15.30;59.30
19090;DHT22;9677;50.656;13.064;2022-12-26T11:01:31;15.50;59.30
19090;DHT22;9677;50.656;13.064;2022-12-26T11:04:03;15.30;59.30
19090;DHT22;9677;50.656;13.064;2022-12-26T11:06:38;15.30;59.30
19090;DHT22;9677;50.656;13.064;2022-12-26T11:09:23;15.30;59.30
19090;DHT22;9677;50.656;13.064;2022-12-26T11:12:02;15.30;59.30
19090;DHT22;9677;50.656;13.064;2022-12-26T11:14:35;15.20;59.40
19090;DHT22;9677;50.656;13.064;2022-12-26T11:17:08;15.20;59.40
19090;DHT22;9677;50.656;13.064;2022-12-26T11:19:40;15.30;59.50
19090;DHT22;9677;50.656;13.064;2022-12-26T11:22:20;15.20;59.50
19090;DHT22;9677;50.656;13.064;2022-12-26T11:25:14;15.20;59.60
19090;DHT22;9677;50.656;13.064;2022-12-26T11:27:47;15.10;59.50
19090;DHT22;9677;50.656;13.064;2022-12-26T11:30:28;15.20;59.70
19090;DHT22;9677;50.656;13.064;2022-12-26T11:33:17;15.20;59.80
19090;DHT22;9677;50.656;13.064;2022-12-26T11:36:02;15.10;59.80
19090;DHT22;9677;50.656;13.064;2022-12-26T11:38:46;15.10;59.80
19090;DHT22;9677;50.656;13.064;2022-12-26T11:41:30;15.10;59.80
19090;DHT22;9677;50.656;13.064;2022-12-26T11:44:19;15.10;59.80
19090;DHT22;9677;50.656;13.064;2022-12-26T11:46:56;15.00;59.60
19090;DHT22;9677;50.656;13.064;2022-12-26T11:49:29;15.00;59.60
19090;DHT22;9677;50.656;13.064;2022-12-26T11:52:07;15.00;59.60
19090;DHT22;9677;50.656;13.064;2022-12-26T11:55:26;15.00;59.60
19090;DHT22;9677;50.656;13.064;2022-12-26T11:57:58;14.90;59.50
19090;DHT22;9677;50.656;13.064;2022-12-26T12:00:33;14.90;59.50
19090;DHT22;9677;50.656;13.064;2022-12-26T12:03:08;14.90;59.50
19090;DHT22;9677;50.656;13.064;2022-12-26T12:05:44;14.90;59.60
19090;DHT22;9677;50.656;13.064;2022-12-26T12:08:36;14.80;59.50
19090;DHT22;9677;50.656;13.064;2022-12-26T12:11:18;14.80;59.50
19090;DHT22;9677;50.656;13.064;2022-12-26T12:13:58;14.80;59.50
19090;DHT22;9677;50.656;13.064;2022-12-26T12:16:54;14.80;59.50
19090;DHT22;9677;50.656;13.064;2022-12-26T12:19:37;14.80;59.50
19090;DHT22;9677;50.656;13.064;2022-12-26T12:25:34;14.70;59.50
19090;DHT22;9677;50.656;13.064;2022-12-26T12:28:35;14.80;60.20
19090;DHT22;9677;50.656;13.064;2022-12-26T12:31:18;14.80;59.70
19090;DHT22;9677;50.656;13.064;2022-12-26T12:33:55;14.70;59.60
19090;DHT22;9677;50.656;13.064;2022-12-26T12:36:35;14.70;59.60
19090;DHT22;9677;50.656;13.064;2022-12-26T12:39:11;14.70;59.60
19090;DHT22;9677;50.656;13.064;2022-12-26T12:41:59;14.70;59.70
19090;DHT22;9677;50.656;13.064;2022-12-26T12:44:46;14.70;59.70
19090;DHT22;9677;50.656;13.064;2022-12-26T12:47:28;14.70;59.80
19090;DHT22;9677;50.656;13.064;2022-12-26T12:50:11;14.60;59.80
19090;DHT22;9677;50.656;13.064;2022-12-26T12:52:51;14.60;59.90
19090;DHT22;9677;50.656;13.064;2022-12-26T12:55:38;14.60;60.00
19090;DHT22;9677;50.656;13.064;2022-12-26T12:58:17;14.50;60.00
19090;DHT22;9677;50.656;13.064;2022-12-26T13:00:54;14.50;60.00
19090;DHT22;9677;50.656;13.064;2022-12-26T13:03:29;14.50;60.00
19090;DHT22;9677;50.656;13.064;2022-12-26T13:06:05;14.40;60.00
19090;DHT22;9677;50.656;13.064;2022-12-26T13:08:39;14.30;59.90
19090;DHT22;9677;50.656;13.064;2022-12-26T13:11:12;14.30;59.90
19090;DHT22;9677;50.656;13.064;2022-12-26T13:13:48;14.20;60.00
19090;DHT22;9677;50.656;13.064;2022-12-26T13:16:24;14.20;60.10
19090;DHT22;9677;50.656;13.064;2022-12-26T13:18:57;14.20;60.10
19090;DHT22;9677;50.656;13.064;2022-12-26T13:21:29;14.20;60.20
19090;DHT22;9677;50.656;13.064;2022-12-26T13:24:02;14.20;60.20
19090;DHT22;9677;50.656;13.064;2022-12-26T13:26:55;14.10;60.10
19090;DHT22;9677;50.656;13.064;2022-12-26T13:29:36;14.10;60.10
19090;DHT22;9677;50.656;13.064;2022-12-26T13:32:18;14.10;60.20
19090;DHT22;9677;50.656;13.064;2022-12-26T13:34:49;14.10;60.20
19090;DHT22;9677;50.656;13.064;2022-12-26T13:40:27;14.00;60.40
19090;DHT22;9677;50.656;13.064;2022-12-26T13:43:01;14.00;60.40
19090;DHT22;9677;50.656;13.064;2022-12-26T13:45:53;13.90;60.40
19090;DHT22;9677;50.656;13.064;2022-12-26T13:48:57;13.90;60.50
19090;DHT22;9677;50.656;13.064;2022-12-26T13:51:47;13.90;60.60
19090;DHT22;9677;50.656;13.064;2022-12-26T13:54:18;13.80;60.70
19090;DHT22;9677;50.656;13.064;2022-12-26T14:00:02;13.80;60.80
19090;DHT22;9677;50.656;13.064;2022-12-26T14:03:13;13.80;60.80
19090;DHT22;9677;50.656;13.064;2022-12-26T14:06:21;13.70;60.80
19090;DHT22;9677;50.656;13.064;2022-12-26T14:09:06;13.70;60.90
19090;DHT22;9677;50.656;13.064;2022-12-26T14:11:51;13.80;61.70
19090;DHT22;9677;50.656;13.064;2022-12-26T14:15:05;13.60;60.90
19090;DHT22;9677;50.656;13.064;2022-12-26T14:17:48;13.60;61.00
19090;DHT22;9677;50.656;13.064;2022-12-26T14:20:32;13.80;61.20
19090;DHT22;9677;50.656;13.064;2022-12-26T14:23:30;13.60;61.10
19090;DHT22;9677;50.656;13.064;2022-12-26T14:26:27;13.60;61.20
19090;DHT22;9677;50.656;13.064;2022-12-26T14:29:08;13.60;61.10
19090;DHT22;9677;50.656;13.064;2022-12-26T14:31:44;13.60;61.10
19090;DHT22;9677;50.656;13.064;2022-12-26T14:34:29;13.50;61.10
19090;DHT22;9677;50.656;13.064;2022-12-26T14:37:16;13.50;61.20
19090;DHT22;9677;50.656;13.064;2022-12-26T14:40:03;13.50;61.30
19090;DHT22;9677;50.656;13.064;2022-12-26T14:43:01;13.50;61.40
19090;DHT22;9677;50.656;13.064;2022-12-26T14:45:46;13.50;61.50
19090;DHT22;9677;50.656;13.064;2022-12-26T14:48:44;13.40;61.30
19090;DHT22;9677;50.656;13.064;2022-12-26T14:51:37;13.50;61.60
19090;DHT22;9677;50.656;13.064;2022-12-26T14:54:37;13.40;61.50
19090;DHT22;9677;50.656;13.064;2022-12-26T14:57:44;13.40;62.30
19090;DHT22;9677;50.656;13.064;2022-12-26T15:00:32;13.40;61.50
19090;DHT22;9677;50.656;13.064;2022-12-26T15:03:39;13.40;61.50
19090;DHT22;9677;50.656;13.064;2022-12-26T15:09:44;13.40;61.60
19090;DHT22;9677;50.656;13.064;2022-12-26T15:12:58;13.40;61.70
19090;DHT22;9677;50.656;13.064;2022-12-26T15:15:50;13.30;61.60
19090;DHT22;9677;50.656;13.064;2022-12-26T15:25:53;13.20;62.40
19090;DHT22;9677;50.656;13.064;2022-12-26T15:29:23;13.30;61.70
19090;DHT22;9677;50.656;13.064;2022-12-26T15:32:08;13.30;61.90
19090;DHT22;9677;50.656;13.064;2022-12-26T15:34:46;13.20;61.80
19090;DHT22;9677;50.656;13.064;2022-12-26T15:37:29;13.20;61.90
19090;DHT22;9677;50.656;13.064;2022-12-26T15:40:13;13.20;62.00
19090;DHT22;9677;50.656;13.064;2022-12-26T15:42:53;13.20;62.00
19090;DHT22;9677;50.656;13.064;2022-12-26T15:45:44;13.20;62.10
19090;DHT22;9677;50.656;13.064;2022-12-26T15:48:25;13.20;62.10
19090;DHT22;9677;50.656;13.064;2022-12-26T15:51:03;13.20;62.10
19090;DHT22;9677;50.656;13.064;2022-12-26T15:53:42;13.20;62.00
19090;DHT22;9677;50.656;13.064;2022-12-26T15:56:31;13.20;62.00
19090;DHT22;9677;50.656;13.064;2022-12-26T15:59:47;13.30;62.10
19090;DHT22;9677;50.656;13.064;2022-12-26T16:02:40;13.20;62.00
19090;DHT22;9677;50.656;13.064;2022-12-26T16:05:30;13.20;62.00
19090;DHT22;9677;50.656;13.064;2022-12-26T16:08:24;13.20;62.00
19090;DHT22;9677;50.656;13.064;2022-12-26T16:11:13;13.20;61.90
19090;DHT22;9677;50.656;13.064;2022-12-26T16:13:49;13.20;62.00
19090;DHT22;9677;50.656;13.064;2022-12-26T16:16:26;13.20;61.90
19090;DHT22;9677;50.656;13.064;2022-12-26T16:19:12;13.30;62.00
19090;DHT22;9677;50.656;13.064;2022-12-26T16:21:44;13.20;61.90
19090;DHT22;9677;50.656;13.064;2022-12-26T16:24:33;13.20;61.80
19090;DHT22;9677;50.656;13.064;2022-12-26T16:27:04;13.20;61.70
19090;DHT22;9677;50.656;13.064;2022-12-26T16:29:40;13.20;62.50
19090;DHT22;9677;50.656;13.064;2022-12-26T16:32:15;13.20;61.70
19090;DHT22;9677;50.656;13.064;2022-12-26T16:34:48;13.20;61.70
19090;DHT22;9677;50.656;13.064;2022-12-26T16:37:18;13.20;61.70
19090;DHT22;9677;50.656;13.064;2022-12-26T16:40:14;13.20;61.70
19090;DHT22;9677;50.656;13.064;2022-12-26T16:42:58;13.20;61.70
19090;DHT22;9677;50.656;13.064;2022-12-26T16:45:31;13.10;61.60
19090;DHT22;9677;50.656;13.064;2022-12-26T16:48:04;13.10;61.60
19090;DHT22;9677;50.656;13.064;2022-12-26T16:50:43;13.10;61.60
19090;DHT22;9677;50.656;13.064;2022-12-26T16:53:15;13.10;61.70
19090;DHT22;9677;50.656;13.064;2022-12-26T16:55:46;13.60;61.90
19090;DHT22;9677;50.656;13.064;2022-12-26T16:58:21;13.10;61.70
19090;DHT22;9677;50.656;13.064;2022-12-26T17:01:03;13.10;61.60
19090;DHT22;9677;50.656;13.064;2022-12-26T17:03:42;13.30;61.70
19090;DHT22;9677;50.656;13.064;2022-12-26T17:06:22;13.10;61.60
19090;DHT22;9677;50.656;13.064;2022-12-26T17:08:52;13.10;61.60
19090;DHT22;9677;50.656;13.064;2022-12-26T17:11:27;13.10;61.60